createdAt,value
2023-04-26T00:00:23.779Z,24.91
2023-04-26T00:01:23.833Z,25.01
2023-04-26T00:02:23.966Z,25.11
2023-04-26T00:03:24.075Z,25.06
2023-04-26T00:04:24.197Z,25.10
2023-04-26T00:05:24.098Z,25.17
2023-04-26T00:06:24.191Z,25.09
2023-04-26T00:07:24.214Z,25.13
2023-04-26T00:08:24.288Z,25.11
2023-04-26T00:09:24.383Z,25.11
2023-04-26T00:10:24.426Z,25.13
2023-04-26T00:11:24.536Z,25.18
2023-04-26T00:12:24.595Z,25.24
2023-04-26T00:13:24.661Z,25.32
2023-04-26T00:14:24.739Z,25.32
2023-04-26T00:15:24.819Z,25.33
2023-04-26T00:16:24.879Z,25.36
2023-04-26T00:17:24.950Z,25.54
2023-04-26T00:18:25.000Z,25.43
2023-04-26T00:19:25.113Z,25.40
2023-04-26T00:20:25.193Z,25.40
2023-04-26T00:21:25.273Z,25.37
2023-04-26T00:22:25.350Z,25.37
2023-04-26T00:23:25.436Z,25.57
2023-04-26T00:24:25.488Z,25.49
2023-04-26T00:25:25.555Z,25.35
2023-04-26T00:26:25.623Z,25.43
2023-04-26T00:27:25.708Z,25.41
2023-04-26T00:28:25.743Z,25.36
2023-04-26T00:29:25.820Z,25.45
2023-04-26T00:30:25.887Z,25.41
2023-04-26T00:31:26.023Z,25.42
2023-04-26T00:32:26.159Z,25.42
2023-04-26T00:33:26.144Z,25.49
2023-04-26T00:34:26.173Z,25.53
2023-04-26T00:35:26.259Z,25.50
2023-04-26T00:36:26.338Z,25.52
2023-04-26T00:37:26.403Z,25.62
2023-04-26T00:38:26.515Z,25.56
2023-04-26T00:39:26.608Z,25.52
2023-04-26T00:40:26.641Z,25.52
2023-04-26T00:41:26.678Z,25.56
2023-04-26T00:42:26.741Z,25.45
2023-04-26T00:43:26.837Z,25.53
2023-04-26T00:44:26.903Z,25.45
2023-04-26T00:45:27.004Z,25.45
2023-04-26T00:46:27.129Z,25.47
2023-04-26T00:47:27.153Z,25.56
2023-04-26T00:48:27.196Z,25.51
2023-04-26T00:49:27.241Z,25.56
2023-04-26T00:50:27.320Z,25.48
2023-04-26T00:51:27.417Z,25.45
2023-04-26T00:52:27.479Z,25.49
2023-04-26T00:53:27.516Z,25.47
2023-04-26T00:54:27.582Z,25.45
2023-04-26T00:55:27.682Z,25.44
2023-04-26T00:56:27.690Z,25.42
2023-04-26T00:57:27.757Z,25.38
2023-04-26T00:58:27.806Z,25.38
2023-04-26T00:59:27.822Z,25.25
2023-04-26T01:00:27.858Z,25.22
2023-04-26T01:01:27.937Z,25.22
2023-04-26T01:02:28.096Z,25.16
2023-04-26T01:03:28.110Z,25.11
2023-04-26T01:04:28.093Z,25.10
2023-04-26T01:05:28.104Z,25.04
2023-04-26T01:06:28.147Z,25.03
2023-04-26T01:07:28.159Z,24.98
2023-04-26T01:08:28.196Z,24.98
2023-04-26T01:09:28.210Z,24.94
2023-04-26T01:10:28.280Z,24.87
2023-04-26T01:11:28.316Z,24.83
2023-04-26T01:12:28.329Z,24.80
2023-04-26T01:13:28.329Z,24.84
2023-04-26T01:14:28.379Z,24.74
2023-04-26T01:15:28.391Z,24.77
2023-04-26T01:16:28.474Z,24.77
2023-04-26T01:17:28.474Z,24.69
2023-04-26T01:18:28.459Z,24.66
2023-04-26T01:19:28.455Z,24.69
2023-04-26T01:20:28.501Z,24.65
2023-04-26T01:21:28.507Z,24.63
2023-04-26T01:22:28.538Z,24.64
2023-04-26T01:23:28.546Z,24.61
2023-04-26T01:24:28.577Z,24.60
2023-04-26T01:25:28.557Z,24.55
2023-04-26T01:26:28.558Z,24.51
2023-04-26T01:27:28.564Z,24.53
2023-04-26T01:28:28.585Z,24.50
2023-04-26T01:29:28.588Z,24.47
2023-04-26T01:30:28.597Z,24.46
2023-04-26T01:31:28.649Z,24.35
2023-04-26T01:32:28.653Z,24.33
2023-04-26T01:33:28.649Z,24.35
2023-04-26T01:34:28.679Z,24.35
2023-04-26T01:35:28.699Z,24.36
2023-04-26T01:36:28.728Z,24.31
2023-04-26T01:37:28.714Z,24.30
2023-04-26T01:38:28.758Z,24.31
2023-04-26T01:39:28.728Z,24.30
2023-04-26T01:40:28.748Z,24.28
2023-04-26T01:41:28.751Z,24.35
2023-04-26T01:42:28.809Z,24.34
2023-04-26T01:43:28.854Z,24.31
2023-04-26T01:44:28.873Z,24.24
2023-04-26T01:45:28.898Z,24.29
2023-04-26T01:46:28.971Z,24.29
2023-04-26T01:47:28.966Z,24.28
2023-04-26T01:48:28.994Z,24.23
2023-04-26T01:49:29.015Z,24.23
2023-04-26T01:50:29.047Z,24.18
2023-04-26T01:51:29.063Z,24.21
2023-04-26T01:52:29.096Z,24.22
2023-04-26T01:53:29.129Z,24.21
2023-04-26T01:54:29.152Z,24.14
2023-04-26T01:55:29.182Z,24.10
2023-04-26T01:56:29.195Z,24.05
2023-04-26T01:57:29.197Z,24.01
2023-04-26T01:58:29.227Z,24.01
2023-04-26T01:59:29.251Z,23.98
2023-04-26T02:00:29.232Z,24.04
2023-04-26T02:01:29.290Z,24.02
2023-04-26T02:02:29.331Z,24.04
2023-04-26T02:03:29.329Z,24.09
2023-04-26T02:04:29.329Z,24.09
2023-04-26T02:05:29.339Z,24.12
2023-04-26T02:06:29.325Z,24.08
2023-04-26T02:07:29.342Z,24.12
2023-04-26T02:08:29.402Z,24.08
2023-04-26T02:09:29.450Z,24.06
2023-04-26T02:10:29.468Z,24.08
2023-04-26T02:11:29.483Z,24.05
2023-04-26T02:12:29.484Z,24.12
2023-04-26T02:13:29.528Z,24.08
2023-04-26T02:14:29.542Z,24.08
2023-04-26T02:15:29.592Z,24.08
2023-04-26T02:16:29.803Z,24.12
2023-04-26T02:17:29.698Z,24.08
2023-04-26T02:18:29.687Z,24.11
2023-04-26T02:19:29.683Z,24.11
2023-04-26T02:20:29.737Z,24.15
2023-04-26T02:21:29.788Z,24.08
2023-04-26T02:22:29.872Z,24.10
2023-04-26T02:23:29.857Z,24.11
2023-04-26T02:24:30.995Z,24.03
2023-04-26T02:25:29.980Z,24.07
2023-04-26T02:26:30.038Z,24.13
2023-04-26T02:27:30.115Z,24.11
2023-04-26T02:28:30.159Z,24.12
2023-04-26T02:29:43.816Z,24.07
2023-04-26T02:30:31.226Z,24.10
2023-04-26T02:31:30.233Z,24.09
2023-04-26T02:32:30.242Z,24.10
2023-04-26T02:33:30.189Z,24.12
2023-04-26T02:34:30.200Z,24.13
2023-04-26T02:35:30.233Z,24.12
2023-04-26T02:36:30.233Z,24.13
2023-04-26T02:37:30.196Z,24.15
2023-04-26T02:38:30.205Z,24.17
2023-04-26T02:39:30.213Z,24.14
2023-04-26T02:40:30.222Z,24.12
2023-04-26T02:41:30.314Z,24.15
2023-04-26T02:42:30.356Z,24.12
2023-04-26T02:43:30.428Z,24.11
2023-04-26T02:44:30.472Z,24.14
2023-04-26T02:45:30.596Z,24.13
2023-04-26T02:46:30.702Z,24.16
2023-04-26T02:47:30.660Z,24.17
2023-04-26T02:48:30.701Z,24.10
2023-04-26T02:49:30.729Z,24.11
2023-04-26T02:50:30.782Z,24.11
2023-04-26T02:51:30.850Z,24.08
2023-04-26T02:52:30.892Z,24.09
2023-04-26T02:53:30.923Z,24.11
2023-04-26T02:54:30.961Z,24.05
2023-04-26T02:55:31.016Z,24.08
2023-04-26T02:56:31.085Z,24.06
2023-04-26T02:57:31.126Z,24.06
2023-04-26T02:58:31.203Z,24.02
2023-04-26T02:59:31.208Z,24.04
2023-04-26T03:00:31.235Z,24.02
2023-04-26T03:01:31.372Z,24.00
2023-04-26T03:02:31.467Z,24.00
2023-04-26T03:03:31.457Z,24.04
2023-04-26T03:04:31.493Z,23.98
2023-04-26T03:05:31.531Z,23.98
2023-04-26T03:06:31.539Z,24.00
2023-04-26T03:07:31.619Z,23.98
2023-04-26T03:08:31.683Z,23.97
2023-04-26T03:09:31.698Z,23.97
2023-04-26T03:10:31.728Z,23.97
2023-04-26T03:11:31.769Z,23.95
2023-04-26T03:12:31.808Z,23.96
2023-04-26T03:13:31.859Z,23.94
2023-04-26T03:14:31.884Z,23.94
2023-04-26T03:15:31.947Z,23.89
2023-04-26T03:16:32.064Z,23.92
2023-04-26T03:17:32.062Z,23.90
2023-04-26T03:18:32.056Z,23.90
2023-04-26T03:19:32.109Z,23.92
2023-04-26T03:20:32.132Z,23.92
2023-04-26T03:21:32.191Z,23.96
2023-04-26T03:22:32.225Z,23.95
2023-04-26T03:23:32.263Z,23.96
2023-04-26T03:24:32.335Z,23.89
2023-04-26T03:25:32.358Z,23.87
2023-04-26T03:26:32.396Z,23.85
2023-04-26T03:27:32.436Z,23.84
2023-04-26T03:28:32.495Z,23.90
2023-04-26T03:29:32.502Z,23.86
2023-04-26T03:30:32.557Z,23.88
2023-04-26T03:31:32.624Z,23.84
2023-04-26T03:32:32.619Z,23.86
2023-04-26T03:33:32.686Z,23.88
2023-04-26T03:34:32.717Z,23.85
2023-04-26T03:35:32.765Z,23.84
2023-04-26T03:36:32.770Z,23.85
2023-04-26T03:37:32.884Z,23.82
2023-04-26T03:38:32.871Z,23.85
2023-04-26T03:39:32.916Z,23.90
2023-04-26T03:40:32.946Z,23.81
2023-04-26T03:41:33.051Z,23.87
2023-04-26T03:42:33.050Z,23.87
2023-04-26T03:43:33.084Z,23.82
2023-04-26T03:44:33.092Z,23.81
2023-04-26T03:45:33.155Z,23.88
2023-04-26T03:46:33.192Z,23.80
2023-04-26T03:47:33.328Z,23.80
2023-04-26T03:48:33.247Z,23.84
2023-04-26T03:49:33.300Z,23.77
2023-04-26T03:50:33.316Z,23.76
2023-04-26T03:51:33.367Z,23.80
2023-04-26T03:52:34.265Z,23.74
2023-04-26T03:53:33.436Z,23.76
2023-04-26T03:54:33.495Z,23.73
2023-04-26T03:55:33.493Z,23.76
2023-04-26T03:56:33.591Z,23.76
2023-04-26T03:57:33.597Z,23.74
2023-04-26T03:58:33.646Z,23.70
2023-04-26T03:59:33.682Z,23.67
2023-04-26T04:00:33.704Z,23.68
2023-04-26T04:01:33.760Z,23.66
2023-04-26T04:02:33.900Z,23.67
2023-04-26T04:03:34.059Z,23.66
2023-04-26T04:04:34.027Z,23.72
2023-04-26T04:05:33.963Z,23.70
2023-04-26T04:06:33.952Z,23.66
2023-04-26T04:07:33.976Z,23.71
2023-04-26T04:08:34.026Z,23.72
2023-04-26T04:09:34.075Z,23.76
2023-04-26T04:10:34.078Z,23.73
2023-04-26T04:11:34.123Z,23.73
2023-04-26T04:12:34.186Z,23.70
2023-04-26T04:13:34.192Z,23.72
2023-04-26T04:14:34.213Z,23.68
2023-04-26T04:15:34.303Z,23.72
2023-04-26T04:16:34.289Z,23.69
2023-04-26T04:17:35.506Z,23.63
2023-04-26T04:18:34.304Z,23.69
2023-04-26T04:19:34.338Z,23.75
2023-04-26T04:20:34.298Z,23.71
2023-04-26T04:21:34.311Z,23.68
2023-04-26T04:22:34.290Z,23.65
2023-04-26T04:23:34.272Z,23.69
2023-04-26T04:24:34.550Z,23.69
2023-04-26T04:25:34.256Z,23.66
2023-04-26T04:26:34.739Z,23.66
2023-04-26T04:27:34.224Z,23.66
2023-04-26T04:28:34.214Z,23.65
2023-04-26T04:29:34.252Z,23.69
2023-04-26T04:30:34.201Z,23.68
2023-04-26T04:31:34.342Z,23.65
2023-04-26T04:32:34.207Z,23.63
2023-04-26T04:33:34.159Z,23.64
2023-04-26T04:34:34.127Z,23.64
2023-04-26T04:35:34.227Z,23.67
2023-04-26T04:36:34.133Z,23.61
2023-04-26T04:37:34.120Z,23.63
2023-04-26T04:38:34.072Z,23.63
2023-04-26T04:39:34.071Z,23.67
2023-04-26T04:40:34.063Z,23.65
2023-04-26T04:41:34.103Z,23.64
2023-04-26T04:42:34.040Z,23.64
2023-04-26T04:43:34.022Z,23.63
2023-04-26T04:44:34.035Z,23.67
2023-04-26T04:45:34.028Z,23.67
2023-04-26T04:46:34.028Z,23.63
2023-04-26T04:47:34.096Z,23.64
2023-04-26T04:48:33.980Z,23.69
2023-04-26T04:49:33.969Z,23.65
2023-04-26T04:50:33.970Z,23.65
2023-04-26T04:51:33.976Z,23.67
2023-04-26T04:52:33.973Z,23.68
2023-04-26T04:53:33.955Z,23.64
2023-04-26T04:54:33.949Z,23.67
2023-04-26T04:55:33.933Z,23.65
2023-04-26T04:56:34.063Z,23.68
2023-04-26T04:57:33.934Z,23.69
2023-04-26T04:58:33.909Z,23.67
2023-04-26T04:59:33.873Z,23.67
2023-04-26T05:00:40.919Z,23.68
2023-04-26T05:01:33.910Z,23.64
2023-04-26T05:02:34.053Z,23.67
2023-04-26T05:03:34.100Z,23.65
2023-04-26T05:04:34.181Z,23.69
2023-04-26T05:05:33.897Z,23.71
2023-04-26T05:06:33.870Z,23.74
2023-04-26T05:07:33.872Z,23.69
2023-04-26T05:08:33.828Z,23.69
2023-04-26T05:09:33.833Z,23.74
2023-04-26T05:10:33.810Z,23.72
2023-04-26T05:11:33.828Z,23.72
2023-04-26T05:12:33.782Z,23.67
2023-04-26T05:13:33.770Z,23.72
2023-04-26T05:14:33.767Z,23.72
2023-04-26T05:15:33.743Z,23.71
2023-04-26T05:16:33.747Z,23.75
2023-04-26T05:17:33.746Z,23.75
2023-04-26T05:18:33.717Z,23.74
2023-04-26T05:19:33.680Z,23.66
2023-04-26T05:20:33.692Z,23.75
2023-04-26T05:21:33.685Z,23.74
2023-04-26T05:22:33.695Z,23.82
2023-04-26T05:23:33.696Z,23.78
2023-04-26T05:24:33.682Z,23.80
2023-04-26T05:25:33.672Z,23.79
2023-04-26T05:26:33.623Z,23.82
2023-04-26T05:27:33.619Z,23.82
2023-04-26T05:28:33.652Z,23.83
2023-04-26T05:29:33.597Z,23.87
2023-04-26T05:30:33.622Z,23.87
2023-04-26T05:31:33.604Z,23.83
2023-04-26T05:32:33.830Z,24.79
2023-04-26T05:33:33.650Z,24.85
2023-04-26T05:34:33.556Z,24.76
2023-04-26T05:35:33.563Z,24.73
2023-04-26T05:36:33.546Z,24.81
2023-04-26T05:37:33.545Z,25.00
2023-04-26T05:38:33.565Z,25.14
2023-04-26T05:39:33.607Z,25.87
2023-04-26T05:40:33.668Z,26.14
2023-04-26T05:41:33.709Z,26.04
2023-04-26T05:42:33.846Z,26.48
2023-04-26T05:43:33.829Z,26.92
2023-04-26T05:44:33.866Z,26.75
2023-04-26T05:45:40.965Z,26.95
2023-04-26T05:46:33.915Z,26.96
2023-04-26T05:47:34.385Z,26.68
2023-04-26T05:48:33.889Z,26.86
2023-04-26T05:49:33.903Z,27.15
2023-04-26T05:50:33.907Z,26.59
2023-04-26T05:51:33.970Z,26.24
2023-04-26T05:52:34.346Z,26.06
2023-04-26T05:53:33.970Z,25.90
2023-04-26T05:54:33.968Z,25.63
2023-04-26T05:55:33.982Z,25.60
2023-04-26T05:56:33.964Z,25.64
2023-04-26T05:57:34.460Z,25.60
2023-04-26T05:58:34.011Z,25.65
2023-04-26T05:59:34.015Z,25.61
2023-04-26T06:00:34.036Z,25.62
2023-04-26T06:01:34.033Z,25.63
2023-04-26T06:02:34.204Z,25.70
2023-04-26T06:03:34.284Z,25.72
2023-04-26T06:04:34.309Z,25.79
2023-04-26T06:05:34.129Z,25.77
2023-04-26T06:06:34.157Z,25.87
2023-04-26T06:07:34.155Z,25.87
2023-04-26T06:08:34.153Z,25.86
2023-04-26T06:09:34.152Z,25.90
2023-04-26T06:10:34.175Z,25.83
2023-04-26T06:11:34.216Z,25.85
2023-04-26T06:12:34.287Z,25.87
2023-04-26T06:13:34.249Z,25.88
2023-04-26T06:14:34.271Z,25.90
2023-04-26T06:15:34.846Z,25.94
2023-04-26T06:16:34.351Z,25.97
2023-04-26T06:17:34.340Z,25.97
2023-04-26T06:18:34.354Z,26.01
2023-04-26T06:19:34.466Z,25.98
2023-04-26T06:20:34.504Z,25.99
2023-04-26T06:21:34.544Z,26.06
2023-04-26T06:22:34.663Z,26.10
2023-04-26T06:23:34.715Z,26.17
2023-04-26T06:24:34.766Z,26.10
2023-04-26T06:25:34.833Z,26.07
2023-04-26T06:26:34.886Z,26.01
2023-04-26T06:27:34.985Z,25.95
2023-04-26T06:28:35.030Z,26.06
2023-04-26T06:29:35.099Z,26.06
2023-04-26T06:30:35.156Z,25.94
2023-04-26T06:31:35.236Z,26.00
2023-04-26T06:32:35.292Z,26.49
2023-04-26T06:33:35.339Z,26.82
2023-04-26T06:34:35.425Z,26.83
2023-04-26T06:35:35.475Z,26.66
2023-04-26T06:36:35.494Z,27.50
2023-04-26T06:37:36.171Z,28.24
2023-04-26T06:38:35.625Z,28.48
2023-04-26T06:39:35.697Z,28.78
2023-04-26T06:40:35.742Z,27.92
2023-04-26T06:41:36.351Z,28.46
2023-04-26T06:42:35.864Z,28.53
2023-04-26T06:43:35.929Z,29.11
2023-04-26T06:44:35.977Z,29.04
2023-04-26T06:45:35.998Z,29.20
2023-04-26T06:46:36.088Z,28.67
2023-04-26T06:47:36.091Z,29.13
2023-04-26T06:48:36.107Z,28.38
2023-04-26T06:49:36.156Z,28.52
2023-04-26T06:50:36.223Z,29.14
2023-04-26T06:51:36.309Z,29.01
2023-04-26T06:52:36.887Z,28.76
2023-04-26T06:53:36.474Z,28.82
2023-04-26T06:54:42.763Z,28.61
2023-04-26T06:55:37.548Z,28.42
2023-04-26T06:56:36.546Z,28.58
2023-04-26T06:57:36.951Z,28.56
2023-04-26T06:58:36.651Z,28.45
2023-04-26T06:59:36.595Z,28.14
2023-04-26T07:00:36.829Z,28.14
2023-04-26T07:01:36.632Z,27.85
2023-04-26T07:02:36.773Z,27.75
2023-04-26T07:03:36.844Z,27.77
2023-04-26T07:04:36.920Z,27.69
2023-04-26T07:05:36.708Z,27.52
2023-04-26T07:06:36.742Z,27.48
2023-04-26T07:07:36.816Z,27.85
2023-04-26T07:08:36.853Z,27.71
2023-04-26T07:09:36.890Z,27.32
2023-04-26T07:10:38.132Z,27.27
2023-04-26T07:11:37.020Z,26.96
2023-04-26T07:12:37.086Z,27.20
2023-04-26T07:13:39.921Z,26.76
2023-04-26T07:14:39.464Z,26.32
2023-04-26T07:15:37.209Z,26.16
2023-04-26T07:16:37.347Z,26.07
2023-04-26T07:17:37.418Z,26.36
2023-04-26T07:18:37.368Z,26.65
2023-04-26T07:19:37.431Z,26.57
2023-04-26T07:20:37.524Z,26.67
2023-04-26T07:21:37.562Z,26.63
2023-04-26T07:22:37.886Z,26.39
2023-04-26T07:23:37.653Z,26.55
2023-04-26T07:24:37.743Z,26.48
2023-04-26T07:25:37.795Z,26.28
2023-04-26T07:26:37.839Z,26.20
2023-04-26T07:27:38.396Z,26.42
2023-04-26T07:28:37.960Z,26.63
2023-04-26T07:29:38.005Z,26.60
2023-04-26T07:30:38.078Z,26.38
2023-04-26T07:31:38.104Z,26.79
2023-04-26T07:32:38.523Z,27.26
2023-04-26T07:33:38.533Z,27.40
2023-04-26T07:34:38.295Z,27.03
2023-04-26T07:35:38.340Z,26.87
2023-04-26T07:36:38.471Z,26.95
2023-04-26T07:37:38.453Z,27.13
2023-04-26T07:38:38.485Z,27.32
2023-04-26T07:39:38.554Z,27.32
2023-04-26T07:40:38.584Z,27.61
2023-04-26T07:41:38.677Z,27.60
2023-04-26T07:42:38.693Z,27.75
2023-04-26T07:43:38.714Z,27.28
2023-04-26T07:44:38.753Z,26.99
2023-04-26T07:45:38.825Z,26.98
2023-04-26T07:46:38.833Z,26.94
2023-04-26T07:47:38.967Z,26.76
2023-04-26T07:48:38.915Z,26.97
2023-04-26T07:49:38.983Z,26.83
2023-04-26T07:50:39.009Z,26.77
2023-04-26T07:51:39.021Z,26.54
2023-04-26T07:52:39.112Z,26.50
2023-04-26T07:53:39.128Z,26.23
2023-04-26T07:54:39.179Z,26.27
2023-04-26T07:55:39.244Z,26.34
2023-04-26T07:56:39.304Z,26.33
2023-04-26T07:57:39.461Z,26.10
2023-04-26T07:58:39.502Z,25.93
2023-04-26T07:59:39.416Z,25.79
2023-04-26T08:00:39.495Z,26.44
2023-04-26T08:01:39.600Z,26.30
2023-04-26T08:02:45.190Z,26.14
2023-04-26T08:03:40.830Z,26.10
2023-04-26T08:04:39.848Z,26.03
2023-04-26T08:05:39.929Z,26.13
2023-04-26T08:06:39.603Z,26.17
2023-04-26T08:07:39.898Z,25.99
2023-04-26T08:08:39.641Z,25.84
2023-04-26T08:09:39.626Z,25.55
2023-04-26T08:10:39.650Z,25.59
2023-04-26T08:11:39.675Z,25.65
2023-04-26T08:12:39.920Z,25.63
2023-04-26T08:13:39.666Z,25.88
2023-04-26T08:14:39.680Z,25.60
2023-04-26T08:15:39.651Z,25.37
2023-04-26T08:16:39.718Z,25.22
2023-04-26T08:17:39.702Z,25.31
2023-04-26T08:18:39.688Z,25.49
2023-04-26T08:19:39.685Z,25.14
2023-04-26T08:20:39.774Z,25.47
2023-04-26T08:21:39.785Z,25.37
2023-04-26T08:22:39.826Z,25.18
2023-04-26T08:23:39.824Z,25.47
2023-04-26T08:24:39.871Z,25.45
2023-04-26T08:25:39.918Z,25.48
2023-04-26T08:26:39.910Z,25.27
2023-04-26T08:27:40.461Z,25.12
2023-04-26T08:28:39.928Z,25.11
2023-04-26T08:29:39.984Z,25.10
2023-04-26T08:30:39.998Z,25.21
2023-04-26T08:31:40.110Z,26.34
2023-04-26T08:32:40.106Z,27.02
2023-04-26T08:33:40.417Z,26.63
2023-04-26T08:34:40.114Z,25.86
2023-04-26T08:35:40.111Z,25.43
2023-04-26T08:36:40.176Z,25.69
2023-04-26T08:37:40.219Z,25.35
2023-04-26T08:38:40.409Z,25.28
2023-04-26T08:39:40.193Z,25.54
2023-04-26T08:40:40.248Z,25.49
2023-04-26T08:41:40.323Z,25.63
2023-04-26T08:42:40.332Z,25.82
2023-04-26T08:43:40.450Z,25.90
2023-04-26T08:44:40.446Z,25.82
2023-04-26T08:45:40.457Z,25.68
2023-04-26T08:46:40.570Z,25.97
2023-04-26T08:47:40.567Z,25.90
2023-04-26T08:48:40.540Z,26.02
2023-04-26T08:49:40.583Z,25.60
2023-04-26T08:50:40.603Z,25.46
2023-04-26T08:51:40.629Z,25.88
2023-04-26T08:52:40.724Z,25.71
2023-04-26T08:53:40.936Z,26.28
2023-04-26T08:54:40.724Z,25.49
2023-04-26T08:55:40.785Z,25.02
2023-04-26T08:56:40.815Z,24.35
2023-04-26T08:57:40.899Z,24.26
2023-04-26T08:58:40.885Z,24.08
2023-04-26T08:59:40.964Z,23.98
2023-04-26T09:00:41.001Z,23.80
2023-04-26T09:01:41.151Z,23.71
2023-04-26T09:02:41.220Z,23.59
2023-04-26T09:03:41.314Z,23.56
2023-04-26T09:04:41.430Z,23.50
2023-04-26T09:05:41.244Z,23.44
2023-04-26T09:06:41.254Z,23.21
2023-04-26T09:07:41.328Z,23.23
2023-04-26T09:08:41.574Z,22.94
2023-04-26T09:09:41.441Z,22.85
2023-04-26T09:10:41.475Z,22.81
2023-04-26T09:11:41.550Z,22.73
2023-04-26T09:12:41.625Z,22.77
2023-04-26T09:13:41.625Z,22.71
2023-04-26T09:14:41.717Z,22.56
2023-04-26T09:15:41.854Z,22.66
2023-04-26T09:16:41.841Z,22.35
2023-04-26T09:17:42.003Z,22.40
2023-04-26T09:18:44.992Z,22.27
2023-04-26T09:19:41.920Z,22.05
2023-04-26T09:20:41.945Z,22.12
2023-04-26T09:21:41.963Z,22.03
2023-04-26T09:22:41.986Z,22.07
2023-04-26T09:23:41.972Z,22.04
2023-04-26T09:24:42.078Z,21.91
2023-04-26T09:25:42.009Z,21.85
2023-04-26T09:26:42.012Z,21.73
2023-04-26T09:27:42.026Z,21.65
2023-04-26T09:28:42.050Z,21.59
2023-04-26T09:29:42.059Z,21.43
2023-04-26T09:30:42.073Z,21.55
2023-04-26T09:31:42.088Z,21.56
2023-04-26T09:32:42.100Z,21.50
2023-04-26T09:33:42.465Z,21.40
2023-04-26T09:34:42.087Z,21.48
2023-04-26T09:35:42.088Z,21.35
2023-04-26T09:36:42.094Z,21.17
2023-04-26T09:37:51.011Z,21.21
2023-04-26T09:38:43.460Z,21.29
2023-04-26T09:39:42.180Z,21.13
2023-04-26T09:40:42.133Z,20.91
2023-04-26T09:41:42.113Z,20.60
2023-04-26T09:42:42.185Z,20.72
2023-04-26T09:43:42.473Z,20.95
2023-04-26T09:44:42.176Z,20.89
2023-04-26T09:45:42.189Z,20.91
2023-04-26T09:46:42.251Z,22.03
2023-04-26T09:47:42.256Z,23.38
2023-04-26T09:48:42.446Z,24.53
2023-04-26T09:49:42.281Z,23.90
2023-04-26T09:50:42.323Z,23.99
2023-04-26T09:51:42.399Z,24.74
2023-04-26T09:52:42.442Z,24.50
2023-04-26T09:53:42.486Z,23.97
2023-04-26T09:54:42.567Z,23.92
2023-04-26T09:55:43.446Z,23.57
2023-04-26T09:56:43.583Z,23.43
2023-04-26T09:57:42.660Z,24.08
2023-04-26T09:58:43.036Z,24.35
2023-04-26T09:59:42.591Z,23.90
2023-04-26T10:00:42.676Z,23.29
2023-04-26T10:01:42.704Z,22.92
2023-04-26T10:02:42.623Z,23.34
2023-04-26T10:03:43.073Z,22.41
2023-04-26T10:04:42.674Z,22.44
2023-04-26T10:05:42.588Z,21.86
2023-04-26T10:06:42.614Z,22.28
2023-04-26T10:07:42.643Z,21.49
2023-04-26T10:08:42.968Z,21.63
2023-04-26T10:09:42.635Z,21.70
2023-04-26T10:10:42.638Z,21.60
2023-04-26T10:11:42.741Z,21.69
2023-04-26T10:12:42.680Z,21.33
2023-04-26T10:13:42.700Z,21.48
2023-04-26T10:14:42.700Z,21.66
2023-04-26T10:15:42.675Z,21.66
2023-04-26T10:16:42.754Z,21.51
2023-04-26T10:17:42.768Z,21.41
2023-04-26T10:18:42.716Z,21.43
2023-04-26T10:19:42.729Z,21.15
2023-04-26T10:20:42.732Z,21.06
2023-04-26T10:21:42.754Z,21.05
2023-04-26T10:22:42.758Z,21.02
2023-04-26T10:23:42.764Z,21.03
2023-04-26T10:24:42.768Z,20.87
2023-04-26T10:25:42.798Z,21.00
2023-04-26T10:26:42.779Z,20.96
2023-04-26T10:27:42.788Z,20.95
2023-04-26T10:28:42.938Z,20.73
2023-04-26T10:29:42.855Z,20.69
2023-04-26T10:30:42.848Z,20.67
2023-04-26T10:31:42.878Z,20.31
2023-04-26T10:32:42.890Z,20.34
2023-04-26T10:33:42.965Z,20.39
2023-04-26T10:34:42.955Z,20.31
2023-04-26T10:35:42.897Z,20.37
2023-04-26T10:36:42.888Z,20.37
2023-04-26T10:37:42.883Z,20.61
2023-04-26T10:38:42.980Z,20.72
2023-04-26T10:39:43.014Z,21.10
2023-04-26T10:40:42.912Z,20.23
2023-04-26T10:41:42.986Z,20.27
2023-04-26T10:42:43.013Z,20.21
2023-04-26T10:43:43.488Z,20.06
2023-04-26T10:44:43.217Z,21.49
2023-04-26T10:45:43.201Z,21.08
2023-04-26T10:46:43.312Z,22.24
2023-04-26T10:47:43.304Z,21.41
2023-04-26T10:48:43.283Z,20.62
2023-04-26T10:49:43.481Z,20.75
2023-04-26T10:50:43.408Z,21.08
2023-04-26T10:51:43.464Z,21.23
2023-04-26T10:52:43.468Z,21.08
2023-04-26T10:53:43.534Z,20.78
2023-04-26T10:54:44.003Z,21.37
2023-04-26T10:55:43.667Z,20.83
2023-04-26T10:56:43.663Z,20.67
2023-04-26T10:57:43.718Z,20.61
2023-04-26T10:58:43.724Z,20.45
2023-04-26T10:59:54.015Z,20.34
2023-04-26T11:00:44.769Z,20.15
2023-04-26T11:01:43.885Z,19.92
2023-04-26T11:02:43.900Z,19.96
2023-04-26T11:03:43.910Z,19.89
2023-04-26T11:04:43.853Z,19.78
2023-04-26T11:05:43.905Z,19.77
2023-04-26T11:06:43.784Z,19.90
2023-04-26T11:07:43.796Z,20.12
2023-04-26T11:08:43.786Z,19.78
2023-04-26T11:09:43.814Z,19.62
2023-04-26T11:10:43.859Z,19.39
2023-04-26T11:11:43.808Z,19.59
2023-04-26T11:12:43.824Z,19.91
2023-04-26T11:13:43.853Z,20.00
2023-04-26T11:14:43.822Z,19.60
2023-04-26T11:15:43.851Z,19.91
2023-04-26T11:16:43.941Z,19.72
2023-04-26T11:17:43.971Z,20.97
2023-04-26T11:18:44.021Z,19.97
2023-04-26T11:19:44.010Z,19.20
2023-04-26T11:20:44.072Z,18.67
2023-04-26T11:21:44.094Z,18.40
2023-04-26T11:22:44.179Z,19.00
2023-04-26T11:23:44.179Z,19.31
2023-04-26T11:24:44.480Z,20.08
2023-04-26T11:25:44.242Z,19.90
2023-04-26T11:26:44.296Z,20.09
2023-04-26T11:27:44.334Z,20.35
2023-04-26T11:28:44.379Z,20.11
2023-04-26T11:29:44.505Z,20.28
2023-04-26T11:30:44.447Z,22.42
2023-04-26T11:31:44.521Z,21.87
2023-04-26T11:32:44.551Z,21.91
2023-04-26T11:33:44.510Z,22.03
2023-04-26T11:34:44.981Z,21.71
2023-04-26T11:35:44.596Z,21.29
2023-04-26T11:36:44.594Z,20.98
2023-04-26T11:37:44.594Z,20.88
2023-04-26T11:38:44.645Z,20.61
2023-04-26T11:39:44.614Z,20.53
2023-04-26T11:40:44.665Z,20.46
2023-04-26T11:41:44.694Z,20.17
2023-04-26T11:42:44.734Z,20.11
2023-04-26T11:43:44.719Z,20.05
2023-04-26T11:44:45.741Z,19.98
2023-04-26T11:45:44.757Z,19.93
2023-04-26T11:46:44.761Z,19.54
2023-04-26T11:47:44.815Z,19.53
2023-04-26T11:48:44.806Z,19.27
2023-04-26T11:49:44.851Z,19.42
2023-04-26T11:50:44.875Z,19.45
2023-04-26T11:51:44.904Z,19.56
2023-04-26T11:52:44.900Z,19.64
2023-04-26T11:53:44.947Z,19.69
2023-04-26T11:54:44.973Z,19.66
2023-04-26T11:55:45.037Z,19.57
2023-04-26T11:56:44.993Z,19.53
2023-04-26T11:57:45.002Z,19.51
2023-04-26T11:58:45.008Z,19.50
2023-04-26T11:59:45.111Z,19.42
2023-04-26T12:00:45.083Z,19.44
2023-04-26T12:01:45.159Z,19.53
2023-04-26T12:02:45.243Z,19.31
2023-04-26T12:03:45.310Z,19.35
2023-04-26T12:04:45.391Z,19.29
2023-04-26T12:05:45.156Z,19.20
2023-04-26T12:06:45.190Z,19.37
2023-04-26T12:07:45.196Z,19.05
2023-04-26T12:08:45.218Z,18.87
2023-04-26T12:09:45.220Z,18.98
2023-04-26T12:10:45.222Z,19.05
2023-04-26T12:11:45.228Z,19.02
2023-04-26T12:12:45.268Z,18.99
2023-04-26T12:13:45.284Z,19.01
2023-04-26T12:14:45.288Z,19.02
2023-04-26T12:15:45.299Z,18.89
2023-04-26T12:16:45.322Z,18.84
2023-04-26T12:17:45.379Z,18.93
2023-04-26T12:18:45.346Z,18.97
2023-04-26T12:19:45.350Z,18.80
2023-04-26T12:20:45.355Z,18.71
2023-04-26T12:21:45.406Z,18.72
2023-04-26T12:22:45.420Z,18.71
2023-04-26T12:23:45.434Z,18.40
2023-04-26T12:24:45.407Z,18.50
2023-04-26T12:25:45.438Z,18.52
2023-04-26T12:26:45.420Z,18.53
2023-04-26T12:27:45.459Z,18.53
2023-04-26T12:28:45.470Z,18.58
2023-04-26T12:29:45.470Z,18.38
2023-04-26T12:30:45.510Z,18.43
2023-04-26T12:31:45.533Z,18.31
2023-04-26T12:32:45.599Z,18.40
2023-04-26T12:33:45.542Z,18.46
2023-04-26T12:34:45.607Z,18.43
2023-04-26T12:35:45.575Z,18.38
2023-04-26T12:36:45.573Z,18.55
2023-04-26T12:37:45.573Z,18.48
2023-04-26T12:38:45.600Z,18.46
2023-04-26T12:39:45.637Z,18.40
2023-04-26T12:40:45.619Z,18.16
2023-04-26T12:41:45.619Z,18.14
2023-04-26T12:42:45.665Z,18.30
2023-04-26T12:43:45.675Z,18.36
2023-04-26T12:44:45.721Z,18.40
2023-04-26T12:45:45.720Z,18.34
2023-04-26T12:46:45.814Z,18.37
2023-04-26T12:47:45.766Z,18.34
2023-04-26T12:48:45.728Z,18.34
2023-04-26T12:49:45.740Z,18.36
2023-04-26T12:50:45.757Z,18.34
2023-04-26T12:51:45.786Z,18.43
2023-04-26T12:52:45.800Z,20.80